sensor_id;sensor_type;location;lat;lon;timestamp;P1;P2;P0
72854;PMS7003;60991;51.278;22.550;2023-11-21T00:00:24;15.67;12.00;9.67
72854;PMS7003;60991;51.278;22.550;2023-11-21T00:01:54;21.25;17.25;11.75
72854;PMS7003;60991;51.278;22.550;2023-11-21T00:03:25;16.25;12.00;9.50
72854;PMS7003;60991;51.278;22.550;2023-11-21T00:04:55;19.33;16.33;11.33
72854;PMS7003;60991;51.278;22.550;2023-11-21T00:06:25;19.00;12.50;9.00
72854;PMS7003;60991;51.278;22.550;2023-11-21T00:07:55;19.33;15.00;9.67
72854;PMS7003;60991;51.278;22.550;2023-11-21T00:09:26;13.33;13.33;9.00
72854;PMS7003;60991;51.278;22.550;2023-11-21T00:10:56;17.50;13.00;8.50
72854;PMS7003;60991;51.278;22.550;2023-11-21T00:12:26;14.25;11.00;8.50
72854;PMS7003;60991;51.278;22.550;2023-11-21T00:13:56;18.33;18.00;9.00
72854;PMS7003;60991;51.278;22.550;2023-11-21T00:15:26;14.33;13.33;9.67
72854;PMS7003;60991;51.278;22.550;2023-11-21T00:16:57;18.67;15.00;9.00
72854;PMS7003;60991;51.278;22.550;2023-11-21T00:18:27;19.00;15.33;9.00
72854;PMS7003;60991;51.278;22.550;2023-11-21T00:19:57;31.00;17.67;11.67
72854;PMS7003;60991;51.278;22.550;2023-11-21T00:21:27;19.33;17.00;12.00
72854;PMS7003;60991;51.278;22.550;2023-11-21T00:22:58;12.25;12.00;9.00
72854;PMS7003;60991;51.278;22.550;2023-11-21T00:24:28;17.00;11.00;8.50
72854;PMS7003;60991;51.278;22.550;2023-11-21T00:25:58;19.50;17.50;11.00
72854;PMS7003;60991;51.278;22.550;2023-11-21T00:27:29;20.67;18.00;12.00
72854;PMS7003;60991;51.278;22.550;2023-11-21T00:28:59;18.75;12.50;9.50
72854;PMS7003;60991;51.278;22.550;2023-11-21T00:30:30;18.67;15.33;12.00
72854;PMS7003;60991;51.278;22.550;2023-11-21T00:32:00;16.00;11.50;8.00
72854;PMS7003;60991;51.278;22.550;2023-11-21T00:33:31;14.50;12.25;9.00
72854;PMS7003;60991;51.278;22.550;2023-11-21T00:35:01;13.50;13.25;10.00
72854;PMS7003;60991;51.278;22.550;2023-11-21T00:36:32;8.25;5.00;5.00
72854;PMS7003;60991;51.278;22.550;2023-11-21T00:38:02;17.00;13.33;10.33
72854;PMS7003;60991;51.278;22.550;2023-11-21T00:39:32;14.67;11.00;8.67
72854;PMS7003;60991;51.278;22.550;2023-11-21T00:41:03;17.75;14.75;11.25
72854;PMS7003;60991;51.278;22.550;2023-11-21T00:42:33;17.75;14.00;11.25
72854;PMS7003;60991;51.278;22.550;2023-11-21T00:44:03;14.00;9.00;7.25
72854;PMS7003;60991;51.278;22.550;2023-11-21T00:45:34;26.00;14.25;10.50
72854;PMS7003;60991;51.278;22.550;2023-11-21T00:47:04;15.75;11.75;8.25
72854;PMS7003;60991;51.278;22.550;2023-11-21T00:48:34;19.50;17.25;12.00
72854;PMS7003;60991;51.278;22.550;2023-11-21T00:50:05;17.25;13.50;11.25
72854;PMS7003;60991;51.278;22.550;2023-11-21T00:51:35;19.25;13.75;11.00
72854;PMS7003;60991;51.278;22.550;2023-11-21T00:53:06;12.00;12.00;8.25
72854;PMS7003;60991;51.278;22.550;2023-11-21T00:54:36;18.75;12.25;9.00
72854;PMS7003;60991;51.278;22.550;2023-11-21T00:56:06;18.75;14.50;11.00
72854;PMS7003;60991;51.278;22.550;2023-11-21T00:57:37;18.25;13.25;10.00
72854;PMS7003;60991;51.278;22.550;2023-11-21T00:59:07;19.50;18.50;9.00
72854;PMS7003;60991;51.278;22.550;2023-11-21T01:00:37;17.00;14.33;9.00
72854;PMS7003;60991;51.278;22.550;2023-11-21T01:02:07;12.00;12.00;9.00
72854;PMS7003;60991;51.278;22.550;2023-11-21T01:03:38;23.75;18.00;11.00
72854;PMS7003;60991;51.278;22.550;2023-11-21T01:05:08;19.00;16.33;11.00
72854;PMS7003;60991;51.278;22.550;2023-11-21T01:06:38;14.25;13.00;11.25
72854;PMS7003;60991;51.278;22.550;2023-11-21T01:08:08;15.25;15.25;9.00
72854;PMS7003;60991;51.278;22.550;2023-11-21T01:09:38;15.33;15.00;11.00
72854;PMS7003;60991;51.278;22.550;2023-11-21T01:11:09;21.50;15.50;11.00
72854;PMS7003;60991;51.278;22.550;2023-11-21T01:12:39;15.25;10.50;8.75
72854;PMS7003;60991;51.278;22.550;2023-11-21T01:14:10;14.75;14.25;11.25
72854;PMS7003;60991;51.278;22.550;2023-11-21T01:15:40;15.00;15.00;9.50
72854;PMS7003;60991;51.278;22.550;2023-11-21T01:17:10;16.75;12.25;9.00
72854;PMS7003;60991;51.278;22.550;2023-11-21T01:18:40;8.50;6.00;4.25
72854;PMS7003;60991;51.278;22.550;2023-11-21T01:20:11;18.67;12.00;8.00
72854;PMS7003;60991;51.278;22.550;2023-11-21T01:21:41;20.00;16.50;11.00
72854;PMS7003;60991;51.278;22.550;2023-11-21T01:23:11;17.00;13.67;11.33
72854;PMS7003;60991;51.278;22.550;2023-11-21T01:24:42;13.75;10.00;8.00
72854;PMS7003;60991;51.278;22.550;2023-11-21T01:26:12;12.00;12.00;9.00
72854;PMS7003;60991;51.278;22.550;2023-11-21T01:27:43;16.75;15.25;10.50
72854;PMS7003;60991;51.278;22.550;2023-11-21T01:29:13;21.00;16.00;12.25
72854;PMS7003;60991;51.278;22.550;2023-11-21T01:30:43;15.50;13.00;9.00
72854;PMS7003;60991;51.278;22.550;2023-11-21T01:32:14;16.75;13.50;9.00
72854;PMS7003;60991;51.278;22.550;2023-11-21T01:33:44;17.33;15.00;12.00
72854;PMS7003;60991;51.278;22.550;2023-11-21T01:35:14;20.00;15.67;11.67
72854;PMS7003;60991;51.278;22.550;2023-11-21T01:36:45;17.50;15.75;9.50
72854;PMS7003;60991;51.278;22.550;2023-11-21T01:38:16;15.75;14.00;8.00
72854;PMS7003;60991;51.278;22.550;2023-11-21T01:39:47;21.00;18.00;10.33
72854;PMS7003;60991;51.278;22.550;2023-11-21T01:41:17;24.50;15.50;10.00
72854;PMS7003;60991;51.278;22.550;2023-11-21T01:42:47;16.00;15.00;11.00
72854;PMS7003;60991;51.278;22.550;2023-11-21T01:44:18;15.00;15.00;9.00
72854;PMS7003;60991;51.278;22.550;2023-11-21T01:45:48;17.00;13.25;9.00
72854;PMS7003;60991;51.278;22.550;2023-11-21T01:47:19;14.25;13.75;11.00
72854;PMS7003;60991;51.278;22.550;2023-11-21T01:48:49;16.00;12.50;9.50
72854;PMS7003;60991;51.278;22.550;2023-11-21T01:50:20;20.50;13.25;9.00
72854;PMS7003;60991;51.278;22.550;2023-11-21T01:51:51;16.75;13.75;8.75
72854;PMS7003;60991;51.278;22.550;2023-11-21T01:53:21;12.25;10.75;8.25
72854;PMS7003;60991;51.278;22.550;2023-11-21T01:54:54;15.25;14.50;11.00
72854;PMS7003;60991;51.278;22.550;2023-11-21T01:56:24;15.75;15.50;11.25
72854;PMS7003;60991;51.278;22.550;2023-11-21T01:57:54;16.75;15.00;12.00
72854;PMS7003;60991;51.278;22.550;2023-11-21T01:59:26;18.50;14.00;9.00
72854;PMS7003;60991;51.278;22.550;2023-11-21T02:00:57;12.50;12.25;9.75
72854;PMS7003;60991;51.278;22.550;2023-11-21T02:02:27;15.00;11.00;8.75
72854;PMS7003;60991;51.278;22.550;2023-11-21T02:03:58;20.67;13.67;10.33
72854;PMS7003;60991;51.278;22.550;2023-11-21T02:05:28;18.33;14.00;8.00
72854;PMS7003;60991;51.278;22.550;2023-11-21T02:06:59;18.00;16.25;11.50
72854;PMS7003;60991;51.278;22.550;2023-11-21T02:08:30;15.25;12.00;9.00
72854;PMS7003;60991;51.278;22.550;2023-11-21T02:10:00;18.33;11.33;9.00
72854;PMS7003;60991;51.278;22.550;2023-11-21T02:11:32;12.75;10.50;4.25
72854;PMS7003;60991;51.278;22.550;2023-11-21T02:13:02;14.75;10.75;8.50
72854;PMS7003;60991;51.278;22.550;2023-11-21T02:14:33;14.00;14.00;9.00
72854;PMS7003;60991;51.278;22.550;2023-11-21T02:16:03;16.50;15.00;11.25
72854;PMS7003;60991;51.278;22.550;2023-11-21T02:17:33;18.00;15.50;8.25
72854;PMS7003;60991;51.278;22.550;2023-11-21T02:19:04;13.25;12.00;8.75
72854;PMS7003;60991;51.278;22.550;2023-11-21T02:20:37;16.25;14.25;10.00
72854;PMS7003;60991;51.278;22.550;2023-11-21T02:22:07;16.75;11.75;8.00
72854;PMS7003;60991;51.278;22.550;2023-11-21T02:23:39;13.00;8.50;4.00
72854;PMS7003;60991;51.278;22.550;2023-11-21T02:25:09;19.00;15.00;9.00
72854;PMS7003;60991;51.278;22.550;2023-11-21T02:26:39;19.25;13.00;11.25
72854;PMS7003;60991;51.278;22.550;2023-11-21T02:28:09;20.00;16.00;9.00
72854;PMS7003;60991;51.278;22.550;2023-11-21T02:29:40;14.50;12.25;11.00
72854;PMS7003;60991;51.278;22.550;2023-11-21T02:31:10;15.00;12.00;9.00
72854;PMS7003;60991;51.278;22.550;2023-11-21T02:32:40;15.00;13.33;11.67
72854;PMS7003;60991;51.278;22.550;2023-11-21T02:34:11;17.25;12.50;8.00
72854;PMS7003;60991;51.278;22.550;2023-11-21T02:35:41;10.50;9.00;7.75
72854;PMS7003;60991;51.278;22.550;2023-11-21T02:37:11;19.00;14.75;9.50
72854;PMS7003;60991;51.278;22.550;2023-11-21T02:38:42;13.25;11.75;8.00
72854;PMS7003;60991;51.278;22.550;2023-11-21T02:40:12;20.33;15.33;10.33
72854;PMS7003;60991;51.278;22.550;2023-11-21T02:41:43;17.00;12.00;10.00
72854;PMS7003;60991;51.278;22.550;2023-11-21T02:43:15;18.50;11.25;9.00
72854;PMS7003;60991;51.278;22.550;2023-11-21T02:44:45;19.75;12.75;8.00
72854;PMS7003;60991;51.278;22.550;2023-11-21T02:46:15;18.25;15.50;9.75
72854;PMS7003;60991;51.278;22.550;2023-11-21T02:47:46;14.75;13.25;9.00
72854;PMS7003;60991;51.278;22.550;2023-11-21T02:49:17;19.00;15.75;11.00
72854;PMS7003;60991;51.278;22.550;2023-11-21T02:50:48;16.50;11.50;7.75
72854;PMS7003;60991;51.278;22.550;2023-11-21T02:52:18;19.50;13.75;8.00
72854;PMS7003;60991;51.278;22.550;2023-11-21T02:53:49;16.75;9.00;8.00
72854;PMS7003;60991;51.278;22.550;2023-11-21T02:55:19;17.75;11.00;7.75
72854;PMS7003;60991;51.278;22.550;2023-11-21T02:56:49;17.75;13.50;9.00
72854;PMS7003;60991;51.278;22.550;2023-11-21T02:58:19;14.00;11.00;8.00
72854;PMS7003;60991;51.278;22.550;2023-11-21T02:59:50;17.33;13.67;9.67
72854;PMS7003;60991;51.278;22.550;2023-11-21T03:01:20;14.75;14.75;11.00
72854;PMS7003;60991;51.278;22.550;2023-11-21T03:02:50;15.25;11.50;7.00
72854;PMS7003;60991;51.278;22.550;2023-11-21T03:04:20;18.67;11.67;8.67
72854;PMS7003;60991;51.278;22.550;2023-11-21T03:05:51;16.33;14.00;9.67
72854;PMS7003;60991;51.278;22.550;2023-11-21T03:07:21;15.67;12.00;9.00
72854;PMS7003;60991;51.278;22.550;2023-11-21T03:08:51;15.67;15.67;11.67
72854;PMS7003;60991;51.278;22.550;2023-11-21T03:10:21;14.67;12.67;9.00
72854;PMS7003;60991;51.278;22.550;2023-11-21T03:11:52;13.75;11.00;9.00
72854;PMS7003;60991;51.278;22.550;2023-11-21T03:13:23;14.75;11.75;8.00
72854;PMS7003;60991;51.278;22.550;2023-11-21T03:14:53;15.75;11.75;7.75
72854;PMS7003;60991;51.278;22.550;2023-11-21T03:16:23;21.00;16.00;11.00
72854;PMS7003;60991;51.278;22.550;2023-11-21T03:17:54;23.00;14.67;9.33
72854;PMS7003;60991;51.278;22.550;2023-11-21T03:19:24;12.00;12.00;11.00
72854;PMS7003;60991;51.278;22.550;2023-11-21T03:20:54;25.00;14.75;8.75
72854;PMS7003;60991;51.278;22.550;2023-11-21T03:22:24;11.75;9.50;7.00
72854;PMS7003;60991;51.278;22.550;2023-11-21T03:23:55;17.75;8.00;4.50
72854;PMS7003;60991;51.278;22.550;2023-11-21T03:25:25;14.00;9.00;8.00
72854;PMS7003;60991;51.278;22.550;2023-11-21T03:26:55;15.75;13.50;9.00
72854;PMS7003;60991;51.278;22.550;2023-11-21T03:28:26;13.67;11.67;8.33
72854;PMS7003;60991;51.278;22.550;2023-11-21T03:29:56;17.50;10.50;7.50
72854;PMS7003;60991;51.278;22.550;2023-11-21T03:31:26;16.33;9.67;7.00
72854;PMS7003;60991;51.278;22.550;2023-11-21T03:32:56;17.50;11.75;8.00
72854;PMS7003;60991;51.278;22.550;2023-11-21T03:34:27;15.33;15.33;11.00
72854;PMS7003;60991;51.278;22.550;2023-11-21T03:35:57;14.75;13.50;8.50
72854;PMS7003;60991;51.278;22.550;2023-11-21T03:37:28;16.50;11.00;7.25
72854;PMS7003;60991;51.278;22.550;2023-11-21T03:38:58;15.00;11.00;9.00
72854;PMS7003;60991;51.278;22.550;2023-11-21T03:40:28;16.00;14.00;9.50
72854;PMS7003;60991;51.278;22.550;2023-11-21T03:41:58;13.25;11.25;8.25
72854;PMS7003;60991;51.278;22.550;2023-11-21T03:43:29;23.00;19.00;14.67
72854;PMS7003;60991;51.278;22.550;2023-11-21T03:44:59;19.00;16.50;11.25
72854;PMS7003;60991;51.278;22.550;2023-11-21T03:46:29;17.00;14.33;9.67
72854;PMS7003;60991;51.278;22.550;2023-11-21T03:47:59;22.33;13.33;8.67
72854;PMS7003;60991;51.278;22.550;2023-11-21T03:49:29;15.50;15.50;12.00
72854;PMS7003;60991;51.278;22.550;2023-11-21T03:51:00;17.00;13.00;9.00
72854;PMS7003;60991;51.278;22.550;2023-11-21T03:52:30;15.75;13.50;10.50
72854;PMS7003;60991;51.278;22.550;2023-11-21T03:54:00;14.25;12.25;10.00
72854;PMS7003;60991;51.278;22.550;2023-11-21T03:55:30;12.67;12.67;9.00
72854;PMS7003;60991;51.278;22.550;2023-11-21T03:57:01;24.33;17.33;12.67
72854;PMS7003;60991;51.278;22.550;2023-11-21T03:58:31;17.50;11.75;8.00
72854;PMS7003;60991;51.278;22.550;2023-11-21T04:00:01;15.00;14.00;8.75
72854;PMS7003;60991;51.278;22.550;2023-11-21T04:01:32;16.25;13.25;9.25
72854;PMS7003;60991;51.278;22.550;2023-11-21T04:03:02;15.25;14.75;9.00
72854;PMS7003;60991;51.278;22.550;2023-11-21T04:04:33;18.00;16.00;11.00
72854;PMS7003;60991;51.278;22.550;2023-11-21T04:06:04;17.50;11.25;8.75
72854;PMS7003;60991;51.278;22.550;2023-11-21T04:07:34;22.50;13.25;9.25
72854;PMS7003;60991;51.278;22.550;2023-11-21T04:09:05;14.25;11.50;8.75
72854;PMS7003;60991;51.278;22.550;2023-11-21T04:10:35;19.75;12.00;10.00
72854;PMS7003;60991;51.278;22.550;2023-11-21T04:12:05;13.25;13.25;7.25
72854;PMS7003;60991;51.278;22.550;2023-11-21T04:13:36;15.00;11.00;8.00
72854;PMS7003;60991;51.278;22.550;2023-11-21T04:15:06;8.67;6.33;5.00
72854;PMS7003;60991;51.278;22.550;2023-11-21T04:16:37;11.00;11.00;8.50
72854;PMS7003;60991;51.278;22.550;2023-11-21T04:18:07;17.75;10.75;8.75
72854;PMS7003;60991;51.278;22.550;2023-11-21T04:19:37;17.00;12.00;8.00
72854;PMS7003;60991;51.278;22.550;2023-11-21T04:21:08;16.00;10.33;8.33
72854;PMS7003;60991;51.278;22.550;2023-11-21T04:22:39;19.00;14.00;8.75
72854;PMS7003;60991;51.278;22.550;2023-11-21T04:24:09;14.25;14.25;11.00
72854;PMS7003;60991;51.278;22.550;2023-11-21T04:25:39;11.50;9.50;8.00
72854;PMS7003;60991;51.278;22.550;2023-11-21T04:27:10;11.75;10.75;7.50
72854;PMS7003;60991;51.278;22.550;2023-11-21T04:28:40;13.33;9.33;8.67
72854;PMS7003;60991;51.278;22.550;2023-11-21T04:30:11;16.00;12.00;9.33
72854;PMS7003;60991;51.278;22.550;2023-11-21T04:31:42;10.50;8.00;7.00
72854;PMS7003;60991;51.278;22.550;2023-11-21T04:33:12;15.33;14.00;9.33
72854;PMS7003;60991;51.278;22.550;2023-11-21T04:34:43;16.00;11.67;7.33
72854;PMS7003;60991;51.278;22.550;2023-11-21T04:36:13;11.67;9.67;7.67
72854;PMS7003;60991;51.278;22.550;2023-11-21T04:37:43;18.50;12.75;8.50
72854;PMS7003;60991;51.278;22.550;2023-11-21T04:39:13;14.00;9.33;9.33
72854;PMS7003;60991;51.278;22.550;2023-11-21T04:40:43;17.25;12.50;9.75
72854;PMS7003;60991;51.278;22.550;2023-11-21T04:42:14;13.67;9.33;7.00
72854;PMS7003;60991;51.278;22.550;2023-11-21T04:43:44;12.00;7.33;4.67
72854;PMS7003;60991;51.278;22.550;2023-11-21T04:45:14;15.25;9.25;8.25
72854;PMS7003;60991;51.278;22.550;2023-11-21T04:46:44;11.00;8.33;7.00
72854;PMS7003;60991;51.278;22.550;2023-11-21T04:48:14;13.33;11.00;7.33
72854;PMS7003;60991;51.278;22.550;2023-11-21T04:49:45;11.67;9.33;7.00
72854;PMS7003;60991;51.278;22.550;2023-11-21T04:51:16;12.00;9.50;7.50
72854;PMS7003;60991;51.278;22.550;2023-11-21T04:52:46;14.00;11.75;7.00
72854;PMS7003;60991;51.278;22.550;2023-11-21T04:54:17;0.00;0.00;0.00
72854;PMS7003;60991;51.278;22.550;2023-11-21T04:55:47;11.50;8.00;5.50
72854;PMS7003;60991;51.278;22.550;2023-11-21T04:57:17;11.00;11.00;8.33
72854;PMS7003;60991;51.278;22.550;2023-11-21T04:58:47;9.67;9.67;8.00
72854;PMS7003;60991;51.278;22.550;2023-11-21T05:00:18;8.67;7.67;6.33
72854;PMS7003;60991;51.278;22.550;2023-11-21T05:01:48;7.00;5.50;4.75
72854;PMS7003;60991;51.278;22.550;2023-11-21T05:03:18;8.00;8.00;5.00
72854;PMS7003;60991;51.278;22.550;2023-11-21T05:04:48;11.00;8.75;7.00
72854;PMS7003;60991;51.278;22.550;2023-11-21T05:06:18;8.33;7.67;5.67
72854;PMS7003;60991;51.278;22.550;2023-11-21T05:07:49;7.00;7.00;7.00
72854;PMS7003;60991;51.278;22.550;2023-11-21T05:09:19;14.75;8.50;7.25
72854;PMS7003;60991;51.278;22.550;2023-11-21T05:10:49;6.00;5.00;3.50
72854;PMS7003;60991;51.278;22.550;2023-11-21T05:12:19;14.67;8.00;5.00
72854;PMS7003;60991;51.278;22.550;2023-11-21T05:13:50;14.33;8.67;7.67
72854;PMS7003;60991;51.278;22.550;2023-11-21T05:15:20;11.33;5.67;5.00
72854;PMS7003;60991;51.278;22.550;2023-11-21T05:16:50;9.50;7.00;5.00
72854;PMS7003;60991;51.278;22.550;2023-11-21T05:18:20;11.25;8.50;7.00
72854;PMS7003;60991;51.278;22.550;2023-11-21T05:19:51;7.25;7.00;4.75
72854;PMS7003;60991;51.278;22.550;2023-11-21T05:21:21;8.00;7.00;5.67
72854;PMS7003;60991;51.278;22.550;2023-11-21T05:22:51;9.33;9.33;7.67
72854;PMS7003;60991;51.278;22.550;2023-11-21T05:24:21;11.67;8.67;8.00
72854;PMS7003;60991;51.278;22.550;2023-11-21T05:25:51;6.00;5.50;4.00
72854;PMS7003;60991;51.278;22.550;2023-11-21T05:27:22;9.00;8.75;5.50
72854;PMS7003;60991;51.278;22.550;2023-11-21T05:28:52;6.00;5.00;5.00
72854;PMS7003;60991;51.278;22.550;2023-11-21T05:30:22;10.50;10.50;7.25
72854;PMS7003;60991;51.278;22.550;2023-11-21T05:31:52;10.33;7.00;5.67
72854;PMS7003;60991;51.278;22.550;2023-11-21T05:33:23;12.00;8.50;7.00
72854;PMS7003;60991;51.278;22.550;2023-11-21T05:34:53;11.75;7.50;6.25
72854;PMS7003;60991;51.278;22.550;2023-11-21T05:36:23;9.50;6.00;4.75
72854;PMS7003;60991;51.278;22.550;2023-11-21T05:37:53;11.33;8.00;7.00
72854;PMS7003;60991;51.278;22.550;2023-11-21T05:39:23;15.00;7.75;6.00
72854;PMS7003;60991;51.278;22.550;2023-11-21T05:40:54;8.00;7.00;5.00
72854;PMS7003;60991;51.278;22.550;2023-11-21T05:42:24;5.00;5.00;4.67
72854;PMS7003;60991;51.278;22.550;2023-11-21T05:43:54;8.75;7.75;5.00
72854;PMS7003;60991;51.278;22.550;2023-11-21T05:45:24;7.00;5.00;4.33
72854;PMS7003;60991;51.278;22.550;2023-11-21T05:46:55;11.25;6.50;5.50
72854;PMS7003;60991;51.278;22.550;2023-11-21T05:48:25;7.75;4.50;4.00
72854;PMS7003;60991;51.278;22.550;2023-11-21T05:49:55;8.00;5.00;5.00
72854;PMS7003;60991;51.278;22.550;2023-11-21T05:51:25;5.67;5.00;4.00
72854;PMS7003;60991;51.278;22.550;2023-11-21T05:52:56;14.00;7.75;5.00
72854;PMS7003;60991;51.278;22.550;2023-11-21T05:54:26;6.50;6.50;5.50
72854;PMS7003;60991;51.278;22.550;2023-11-21T05:55:56;4.00;4.00;4.00
72854;PMS7003;60991;51.278;22.550;2023-11-21T05:57:26;10.50;6.50;6.50
72854;PMS7003;60991;51.278;22.550;2023-11-21T05:58:57;5.00;5.00;5.00
72854;PMS7003;60991;51.278;22.550;2023-11-21T06:00:27;4.25;4.00;3.00
72854;PMS7003;60991;51.278;22.550;2023-11-21T06:01:57;6.67;5.00;4.00
72854;PMS7003;60991;51.278;22.550;2023-11-21T06:03:27;4.00;4.00;2.50
72854;PMS7003;60991;51.278;22.550;2023-11-21T06:04:57;7.50;6.00;5.00
72854;PMS7003;60991;51.278;22.550;2023-11-21T06:06:28;7.00;7.00;5.00
72854;PMS7003;60991;51.278;22.550;2023-11-21T06:07:58;10.00;8.33;7.00
72854;PMS7003;60991;51.278;22.550;2023-11-21T06:09:28;6.00;5.67;5.00
72854;PMS7003;60991;51.278;22.550;2023-11-21T06:10:58;7.00;7.00;5.00
72854;PMS7003;60991;51.278;22.550;2023-11-21T06:12:28;11.00;5.00;4.00
72854;PMS7003;60991;51.278;22.550;2023-11-21T06:13:59;11.00;8.33;7.00
72854;PMS7003;60991;51.278;22.550;2023-11-21T06:15:29;5.00;4.67;4.00
72854;PMS7003;60991;51.278;22.550;2023-11-21T06:17:00;4.00;4.00;3.00
72854;PMS7003;60991;51.278;22.550;2023-11-21T06:18:30;10.50;7.75;6.25
72854;PMS7003;60991;51.278;22.550;2023-11-21T06:20:00;6.33;6.33;5.00
72854;PMS7003;60991;51.278;22.550;2023-11-21T06:21:30;6.33;5.67;4.00
72854;PMS7003;60991;51.278;22.550;2023-11-21T06:23:00;6.33;6.33;5.00
72854;PMS7003;60991;51.278;22.550;2023-11-21T06:24:31;9.67;9.67;7.00
72854;PMS7003;60991;51.278;22.550;2023-11-21T06:26:01;14.75;14.75;10.75
72854;PMS7003;60991;51.278;22.550;2023-11-21T06:27:32;15.50;11.75;9.25
72854;PMS7003;60991;51.278;22.550;2023-11-21T06:29:03;11.25;11.00;7.00
72854;PMS7003;60991;51.278;22.550;2023-11-21T06:30:33;10.50;8.00;6.00
72854;PMS7003;60991;51.278;22.550;2023-11-21T06:32:04;16.50;10.50;7.25
72854;PMS7003;60991;51.278;22.550;2023-11-21T06:33:34;11.50;8.25;6.50
72854;PMS7003;60991;51.278;22.550;2023-11-21T06:35:05;8.00;7.00;4.25
72854;PMS7003;60991;51.278;22.550;2023-11-21T06:36:36;7.50;7.25;4.75
72854;PMS7003;60991;51.278;22.550;2023-11-21T06:38:07;8.25;7.75;5.50
72854;PMS7003;60991;51.278;22.550;2023-11-21T06:39:37;10.33;7.67;5.67
72854;PMS7003;60991;51.278;22.550;2023-11-21T06:41:07;0.25;0.00;0.00
72854;PMS7003;60991;51.278;22.550;2023-11-21T06:42:37;7.67;7.00;5.00
72854;PMS7003;60991;51.278;22.550;2023-11-21T06:44:07;8.00;7.00;5.00
72854;PMS7003;60991;51.278;22.550;2023-11-21T06:45:38;11.00;7.00;6.33
72854;PMS7003;60991;51.278;22.550;2023-11-21T06:47:08;8.67;8.67;7.00
72854;PMS7003;60991;51.278;22.550;2023-11-21T06:48:38;9.00;7.50;6.50
72854;PMS7003;60991;51.278;22.550;2023-11-21T06:50:08;11.33;8.00;5.00
72854;PMS7003;60991;51.278;22.550;2023-11-21T06:51:39;9.50;7.00;5.50
72854;PMS7003;60991;51.278;22.550;2023-11-21T06:53:09;8.00;5.67;5.33
72854;PMS7003;60991;51.278;22.550;2023-11-21T06:54:39;9.00;8.00;7.00
72854;PMS7003;60991;51.278;22.550;2023-11-21T06:56:16;7.00;5.50;5.00
72854;PMS7003;60991;51.278;22.550;2023-11-21T06:57:47;8.00;7.25;6.50
72854;PMS7003;60991;51.278;22.550;2023-11-21T06:59:17;8.25;7.00;7.00
72854;PMS7003;60991;51.278;22.550;2023-11-21T07:00:47;9.33;9.33;7.00
72854;PMS7003;60991;51.278;22.550;2023-11-21T07:02:17;8.00;7.67;6.33
72854;PMS7003;60991;51.278;22.550;2023-11-21T07:03:48;7.50;5.50;4.50
72854;PMS7003;60991;51.278;22.550;2023-11-21T07:05:18;9.50;5.50;5.00
72854;PMS7003;60991;51.278;22.550;2023-11-21T07:06:48;8.00;6.00;4.50
72854;PMS7003;60991;51.278;22.550;2023-11-21T07:08:18;8.33;8.33;5.67
72854;PMS7003;60991;51.278;22.550;2023-11-21T07:09:49;8.00;7.00;5.00
72854;PMS7003;60991;51.278;22.550;2023-11-21T07:11:19;9.33;5.00;5.00
72854;PMS7003;60991;51.278;22.550;2023-11-21T07:12:49;8.33;7.33;5.67
72854;PMS7003;60991;51.278;22.550;2023-11-21T07:14:19;7.00;5.00;4.67
72854;PMS7003;60991;51.278;22.550;2023-11-21T07:15:49;6.50;6.50;5.00
72854;PMS7003;60991;51.278;22.550;2023-11-21T07:17:20;4.33;4.00;4.00
72854;PMS7003;60991;51.278;22.550;2023-11-21T07:18:50;7.50;5.00;4.00
72854;PMS7003;60991;51.278;22.550;2023-11-21T07:20:21;7.50;6.00;4.25
72854;PMS7003;60991;51.278;22.550;2023-11-21T07:21:51;7.75;5.00;4.75
72854;PMS7003;60991;51.278;22.550;2023-11-21T07:23:21;6.33;6.33;5.00
72854;PMS7003;60991;51.278;22.550;2023-11-21T07:24:52;5.00;5.00;4.00
72854;PMS7003;60991;51.278;22.550;2023-11-21T07:26:22;10.50;9.25;7.50
72854;PMS7003;60991;51.278;22.550;2023-11-21T07:27:52;9.00;3.33;2.00
72854;PMS7003;60991;51.278;22.550;2023-11-21T07:29:25;8.67;8.00;5.00
72854;PMS7003;60991;51.278;22.550;2023-11-21T07:30:55;7.00;5.00;4.50
72854;PMS7003;60991;51.278;22.550;2023-11-21T07:32:26;7.00;4.33;4.00
72854;PMS7003;60991;51.278;22.550;2023-11-21T07:33:56;8.00;8.00;7.25
72854;PMS7003;60991;51.278;22.550;2023-11-21T07:35:26;9.25;7.00;4.50
72854;PMS7003;60991;51.278;22.550;2023-11-21T07:36:56;8.50;7.00;5.00
72854;PMS7003;60991;51.278;22.550;2023-11-21T07:38:26;9.00;9.00;7.00
72854;PMS7003;60991;51.278;22.550;2023-11-21T07:39:57;7.00;7.00;5.00
72854;PMS7003;60991;51.278;22.550;2023-11-21T07:41:27;9.25;4.00;2.00
72854;PMS7003;60991;51.278;22.550;2023-11-21T07:42:57;6.75;5.00;4.75
72854;PMS7003;60991;51.278;22.550;2023-11-21T07:44:28;6.33;5.00;4.67
72854;PMS7003;60991;51.278;22.550;2023-11-21T07:45:58;7.75;7.00;6.00
72854;PMS7003;60991;51.278;22.550;2023-11-21T07:47:29;8.50;6.00;4.75
72854;PMS7003;60991;51.278;22.550;2023-11-21T07:48:59;7.25;4.75;4.00
72854;PMS7003;60991;51.278;22.550;2023-11-21T07:50:29;6.67;4.33;3.33
72854;PMS7003;60991;51.278;22.550;2023-11-21T07:52:00;5.50;4.00;4.00
72854;PMS7003;60991;51.278;22.550;2023-11-21T07:53:30;7.00;6.33;5.00
72854;PMS7003;60991;51.278;22.550;2023-11-21T07:55:00;7.00;7.00;5.50
72854;PMS7003;60991;51.278;22.550;2023-11-21T07:56:30;8.67;7.67;7.00
72854;PMS7003;60991;51.278;22.550;2023-11-21T07:58:01;6.50;6.50;5.00
72854;PMS7003;60991;51.278;22.550;2023-11-21T07:59:31;5.67;5.67;4.33
72854;PMS7003;60991;51.278;22.550;2023-11-21T08:01:02;11.75;7.00;5.00
72854;PMS7003;60991;51.278;22.550;2023-11-21T08:02:33;10.50;7.25;4.75
72854;PMS7003;60991;51.278;22.550;2023-11-21T08:04:03;6.50;6.50;5.00
72854;PMS7003;60991;51.278;22.550;2023-11-21T08:05:33;7.00;7.00;5.00
72854;PMS7003;60991;51.278;22.550;2023-11-21T08:07:04;9.25;5.00;5.00
72854;PMS7003;60991;51.278;22.550;2023-11-21T08:08:34;11.25;7.50;6.00
72854;PMS7003;60991;51.278;22.550;2023-11-21T08:10:04;8.00;8.00;8.00
72854;PMS7003;60991;51.278;22.550;2023-11-21T08:11:35;11.00;8.50;7.00
72854;PMS7003;60991;51.278;22.550;2023-11-21T08:13:05;5.00;5.00;4.00
72854;PMS7003;60991;51.278;22.550;2023-11-21T08:14:35;9.25;7.00;5.00
72854;PMS7003;60991;51.278;22.550;2023-11-21T08:16:06;8.00;7.00;5.00
72854;PMS7003;60991;51.278;22.550;2023-11-21T08:17:37;6.50;4.75;4.00
72854;PMS7003;60991;51.278;22.550;2023-11-21T08:19:07;6.67;6.67;5.67
72854;PMS7003;60991;51.278;22.550;2023-11-21T08:20:37;8.00;6.33;5.00
72854;PMS7003;60991;51.278;22.550;2023-11-21T08:22:07;8.50;5.00;5.00
72854;PMS7003;60991;51.278;22.550;2023-11-21T08:23:37;4.67;4.67;4.33
72854;PMS7003;60991;51.278;22.550;2023-11-21T08:25:08;8.25;7.75;6.50
72854;PMS7003;60991;51.278;22.550;2023-11-21T08:26:38;9.25;9.25;7.00
72854;PMS7003;60991;51.278;22.550;2023-11-21T08:28:09;11.33;8.33;7.33
72854;PMS7003;60991;51.278;22.550;2023-11-21T08:29:39;7.67;7.67;7.00
72854;PMS7003;60991;51.278;22.550;2023-11-21T08:31:09;7.75;7.75;7.00